Time;durP1;ratioP1;P1;durP2;ratioP2;P2;SDS_P1;SDS_P2;PMS_P1;PMS_P2;Temp;Humidity;BMP_temperature;BMP_pressure;BME280_temperature;BME280_humidity;BME280_pressure;Samples;Min_cycle;Max_cycle;Signal;HPM_P1;HPM_P2
2022/01/06 00:00:29;;;;;;;6.72;3.92;;;6.30;99.90;;;;;;5094476;28;20020;-46
2022/01/06 00:02:56;;;;;;;4.28;3.20;;;6.30;99.90;;;;;;5077029;28;20035;-46
2022/01/06 00:05:22;;;;;;;9.38;3.28;;;6.30;99.90;;;;;;5076586;28;20073;-48
2022/01/06 00:07:47;;;;;;;7.93;3.60;;;6.30;99.90;;;;;;5076311;28;20028;-46
2022/01/06 00:10:14;;;;;;;16.05;3.38;;;6.30;99.90;;;;;;5076070;28;20110;-47
2022/01/06 00:13:02;;;;;;;6.95;3.45;;;6.40;99.90;;;;;;5077047;28;20032;-47
2022/01/06 00:15:55;;;;;;;8.07;2.90;;;6.30;99.90;;;;;;5093289;28;20024;-47
2022/01/06 00:23:47;;;;;;;5.10;2.38;;;6.00;99.90;;;;;;5094542;28;20051;-49
2022/01/06 00:29:35;;;;;;;6.38;2.72;;;6.00;99.90;;;;;;5094120;28;20173;-49
2022/01/06 00:32:00;;;;;;;5.38;2.70;;;6.10;99.90;;;;;;5075813;28;20043;-47
2022/01/06 00:34:49;;;;;;;5.55;2.90;;;6.10;99.90;;;;;;5093983;28;20126;-48
2022/01/06 00:37:15;;;;;;;10.13;3.05;;;6.10;99.90;;;;;;5075955;28;20027;-49
2022/01/06 00:39:40;;;;;;;12.13;3.10;;;6.10;99.90;;;;;;5075655;28;20016;-49
2022/01/06 00:42:07;;;;;;;4.60;2.60;;;6.10;99.90;;;;;;5093760;28;20035;-47
2022/01/06 00:45:17;;;;;;;7.60;2.75;;;6.10;99.90;;;;;;5076407;28;20020;-48
2022/01/06 00:47:44;;;;;;;9.00;3.15;;;6.10;99.90;;;;;;5075879;28;20020;-47
2022/01/06 00:50:10;;;;;;;7.00;2.70;;;6.10;99.90;;;;;;5093893;28;20436;-47
2022/01/06 00:52:36;;;;;;;6.97;2.53;;;6.10;99.90;;;;;;5093655;28;20028;-48
2022/01/06 00:55:03;;;;;;;14.85;3.55;;;6.20;99.90;;;;;;5075306;28;20024;-48
2022/01/06 00:57:29;;;;;;;9.77;3.05;;;6.20;99.90;;;;;;5093830;28;20024;-47
2022/01/06 00:59:54;;;;;;;12.77;2.42;;;6.10;99.90;;;;;;5075735;28;20162;-49
2022/01/06 01:02:20;;;;;;;5.88;2.10;;;6.10;99.90;;;;;;5075468;28;20086;-47
2022/01/06 01:04:45;;;;;;;6.70;2.33;;;6.00;99.90;;;;;;5093599;28;20036;-48
2022/01/06 01:07:11;;;;;;;7.35;2.60;;;6.00;99.90;;;;;;5093564;28;20031;-47
2022/01/06 01:09:37;;;;;;;6.20;2.35;;;5.80;99.90;;;;;;5093627;28;20020;-48
2022/01/06 01:12:04;;;;;;;5.72;1.90;;;5.70;99.90;;;;;;5075660;28;20470;-47
2022/01/06 01:14:43;;;;;;;7.97;2.58;;;5.60;99.90;;;;;;5093064;28;20019;-49
2022/01/06 01:17:13;;;;;;;4.53;2.38;;;5.60;99.90;;;;;;5093355;28;20073;-51
2022/01/06 01:19:39;;;;;;;7.20;2.30;;;5.50;99.90;;;;;;5093572;28;20017;-52
2022/01/06 01:22:05;;;;;;;8.48;2.83;;;5.50;99.90;;;;;;5075358;28;20026;-53
2022/01/06 01:24:30;;;;;;;8.18;3.20;;;5.50;99.90;;;;;;5093411;28;20028;-47
2022/01/06 01:26:56;;;;;;;8.93;2.70;;;5.50;99.90;;;;;;5078579;28;20059;-47
2022/01/06 01:29:22;;;;;;;6.70;3.38;;;5.50;99.90;;;;;;5097540;28;20031;-47
2022/01/06 01:31:51;;;;;;;14.40;2.33;;;5.60;99.90;;;;;;5080132;28;20387;-48
2022/01/06 01:34:23;;;;;;;6.90;2.55;;;5.60;99.90;;;;;;5097471;28;20086;-46
2022/01/06 01:36:50;;;;;;;11.77;2.55;;;5.60;99.90;;;;;;5079252;28;20024;-46
2022/01/06 01:39:15;;;;;;;10.88;2.90;;;5.50;99.90;;;;;;5097551;28;20043;-46
2022/01/06 01:41:41;;;;;;;9.68;2.60;;;5.60;99.90;;;;;;5097462;28;20024;-47
2022/01/06 01:44:13;;;;;;;6.20;2.35;;;5.60;99.90;;;;;;5097359;28;20099;-47
2022/01/06 01:46:43;;;;;;;5.00;2.30;;;5.60;99.90;;;;;;5079907;28;20020;-46
2022/01/06 01:51:40;;;;;;;10.30;2.45;;;5.60;99.90;;;;;;5097465;28;20106;-49
2022/01/06 01:54:05;;;;;;;13.15;3.08;;;5.60;99.90;;;;;;5079612;28;20032;-46
2022/01/06 01:56:31;;;;;;;6.45;2.28;;;5.60;99.90;;;;;;5096945;28;20031;-46
2022/01/06 01:58:57;;;;;;;12.52;4.63;;;5.60;99.90;;;;;;5079867;28;20035;-48
2022/01/06 02:01:23;;;;;;;7.40;2.53;;;5.50;99.90;;;;;;5078912;28;20093;-48
2022/01/06 02:03:49;;;;;;;10.35;2.60;;;5.50;99.90;;;;;;5079689;28;20016;-47
2022/01/06 02:06:14;;;;;;;8.70;2.33;;;5.60;99.90;;;;;;5096874;28;20062;-46
2022/01/06 02:08:40;;;;;;;7.63;3.03;;;5.60;99.90;;;;;;5097097;28;20028;-48
2022/01/06 02:11:06;;;;;;;13.88;3.35;;;5.70;99.90;;;;;;5096840;28;20035;-47
2022/01/06 02:13:32;;;;;;;15.35;3.33;;;5.70;99.90;;;;;;5078573;28;20020;-47
2022/01/06 02:16:00;;;;;;;15.20;3.85;;;5.70;99.90;;;;;;5078435;28;20073;-46
2022/01/06 02:18:28;;;;;;;10.10;3.05;;;5.70;99.90;;;;;;5078528;28;20028;-46
2022/01/06 02:20:54;;;;;;;10.85;2.50;;;5.70;99.90;;;;;;5096994;28;20044;-46
2022/01/06 02:23:21;;;;;;;13.95;3.05;;;5.70;99.90;;;;;;5097110;28;20031;-47
2022/01/06 02:25:48;;;;;;;9.35;3.88;;;5.70;99.90;;;;;;5078305;28;20028;-47
2022/01/06 02:28:18;;;;;;;10.60;2.95;;;5.70;99.90;;;;;;5096462;28;20095;-46
2022/01/06 02:30:49;;;;;;;9.38;3.55;;;5.70;99.90;;;;;;5078290;28;20031;-46
2022/01/06 02:33:15;;;;;;;13.30;2.55;;;5.70;99.90;;;;;;5096742;28;20024;-46
2022/01/06 02:35:40;;;;;;;11.98;3.13;;;5.80;99.90;;;;;;5078645;28;20073;-47
2022/01/06 02:38:06;;;;;;;10.98;3.30;;;5.80;99.90;;;;;;5076992;28;20482;-46
2022/01/06 02:40:31;;;;;;;8.63;3.05;;;5.90;99.90;;;;;;5078048;28;20020;-46
2022/01/06 02:42:59;;;;;;;11.50;2.70;;;5.80;99.90;;;;;;5096238;28;20453;-46
2022/01/06 02:45:27;;;;;;;9.25;2.40;;;5.80;99.90;;;;;;5096382;28;20020;-49
2022/01/06 02:47:54;;;;;;;17.08;3.15;;;5.80;99.90;;;;;;5096175;28;20024;-48
2022/01/06 02:50:20;;;;;;;12.85;3.25;;;5.90;99.90;;;;;;5078260;28;20024;-50
2022/01/06 02:52:45;;;;;;;7.88;2.60;;;5.80;99.90;;;;;;5078179;28;20054;-48
2022/01/06 02:55:13;;;;;;;9.73;2.95;;;5.80;99.90;;;;;;5077824;28;20043;-46
2022/01/06 02:57:39;;;;;;;6.50;3.40;;;5.80;99.90;;;;;;5096078;28;20020;-46
2022/01/06 03:00:07;;;;;;;13.85;2.78;;;5.80;99.90;;;;;;5095950;28;20024;-50
2022/01/06 03:02:33;;;;;;;7.20;3.28;;;5.70;99.90;;;;;;5096527;28;20036;-50
2022/01/06 03:04:58;;;;;;;8.88;2.38;;;5.70;99.90;;;;;;5095745;28;20031;-46
2022/01/06 03:07:26;;;;;;;14.80;2.33;;;5.60;99.90;;;;;;5095637;28;20024;-48
2022/01/06 03:09:55;;;;;;;13.32;2.35;;;5.50;99.90;;;;;;5078121;28;20103;-48
2022/01/06 03:12:39;;;;;;;9.70;2.92;;;5.50;99.90;;;;;;5077492;28;20027;-48
2022/01/06 03:15:10;;;;;;;11.65;2.53;;;5.40;99.90;;;;;;5095918;28;20021;-51
2022/01/06 03:18:19;;;;;;;5.70;2.13;;;5.30;99.90;;;;;;5095806;28;20107;-48
2022/01/06 03:20:45;;;;;;;8.75;2.83;;;5.30;99.90;;;;;;5095913;28;20243;-53
2022/01/06 03:23:10;;;;;;;11.90;2.80;;;5.20;99.90;;;;;;5077452;28;20074;-46
2022/01/06 03:25:36;;;;;;;8.40;2.00;;;5.20;99.90;;;;;;5077332;28;20073;-47
2022/01/06 03:28:01;;;;;;;5.35;1.38;;;5.10;99.90;;;;;;5077189;28;20115;-46
2022/01/06 03:30:27;;;;;;;9.23;1.88;;;5.10;99.90;;;;;;5078031;28;20116;-45
2022/01/06 03:32:53;;;;;;;8.80;2.03;;;5.00;99.90;;;;;;5095236;28;20020;-45
2022/01/06 03:35:21;;;;;;;8.43;1.95;;;5.10;99.90;;;;;;5095508;28;20113;-45
2022/01/06 03:37:47;;;;;;;8.77;2.10;;;5.10;99.90;;;;;;5094938;28;20035;-46
2022/01/06 03:40:13;;;;;;;12.57;3.28;;;5.20;99.90;;;;;;5076982;28;20020;-46
2022/01/06 03:42:39;;;;;;;10.60;4.47;;;5.20;99.90;;;;;;5077039;28;20023;-46
2022/01/06 03:45:08;;;;;;;7.95;2.72;;;5.30;99.90;;;;;;5095249;28;20012;-45
2022/01/06 03:47:34;;;;;;;12.38;2.58;;;5.30;99.90;;;;;;5094830;28;20028;-47
2022/01/06 03:49:59;;;;;;;8.13;3.20;;;5.30;99.90;;;;;;5076646;28;20035;-48
2022/01/06 03:52:25;;;;;;;9.57;3.05;;;5.30;99.90;;;;;;5076783;28;20024;-47
2022/01/06 03:54:51;;;;;;;5.55;2.03;;;5.30;99.90;;;;;;5094812;28;20028;-47
2022/01/06 03:57:17;;;;;;;5.60;1.75;;;5.30;99.90;;;;;;5095268;28;20032;-46
2022/01/06 03:59:43;;;;;;;12.82;4.63;;;5.20;99.90;;;;;;5094991;28;20509;-46
2022/01/06 04:02:08;;;;;;;12.65;3.40;;;5.10;99.90;;;;;;5077119;28;20024;-46
2022/01/06 04:04:34;;;;;;;11.63;1.88;;;5.00;99.90;;;;;;5094563;28;20071;-46
2022/01/06 04:07:00;;;;;;;13.07;2.78;;;5.00;99.90;;;;;;5094990;28;20066;-47
2022/01/06 04:09:25;;;;;;;6.68;2.50;;;5.00;99.90;;;;;;5076453;28;20031;-46
2022/01/06 04:11:51;;;;;;;13.57;2.83;;;5.00;99.90;;;;;;5094465;28;20021;-46
2022/01/06 04:14:16;;;;;;;6.05;1.77;;;5.10;99.90;;;;;;5094838;28;20121;-48
2022/01/06 04:16:42;;;;;;;14.40;5.40;;;5.10;99.90;;;;;;5076605;28;20134;-47
2022/01/06 04:19:09;;;;;;;15.55;4.07;;;5.20;99.90;;;;;;5076852;28;20051;-48
2022/01/06 04:21:34;;;;;;;6.93;2.00;;;5.20;99.90;;;;;;5076120;28;20016;-48
2022/01/06 04:24:00;;;;;;;13.60;3.80;;;5.20;99.90;;;;;;5094127;28;20020;-46
2022/01/06 04:26:26;;;;;;;10.90;3.20;;;5.20;99.90;;;;;;5094075;28;20020;-46
2022/01/06 04:28:52;;;;;;;11.07;2.42;;;5.30;99.90;;;;;;5076533;28;20020;-50
2022/01/06 04:31:17;;;;;;;7.18;2.10;;;5.20;99.90;;;;;;5075960;28;20035;-46
2022/01/06 04:33:43;;;;;;;9.52;2.35;;;5.20;99.90;;;;;;5094120;28;20027;-46
2022/01/06 04:36:09;;;;;;;7.22;2.50;;;5.10;99.90;;;;;;5093958;28;20046;-50
2022/01/06 04:38:36;;;;;;;9.48;2.80;;;5.00;99.90;;;;;;5075814;28;20047;-46
2022/01/06 04:41:03;;;;;;;8.60;2.28;;;5.00;99.90;;;;;;5076164;28;20363;-47
2022/01/06 04:43:29;;;;;;;11.75;2.08;;;4.90;99.90;;;;;;5093921;28;20024;-50
2022/01/06 04:45:54;;;;;;;6.93;2.17;;;4.80;99.90;;;;;;5075891;28;20039;-48
2022/01/06 04:48:20;;;;;;;8.60;3.08;;;4.60;99.90;;;;;;5076657;28;20465;-47
2022/01/06 04:50:46;;;;;;;11.02;2.67;;;4.60;99.90;;;;;;5094046;28;20028;-46
2022/01/06 04:53:11;;;;;;;9.00;2.13;;;4.60;99.90;;;;;;5094056;28;20028;-48
2022/01/06 04:55:37;;;;;;;12.38;2.83;;;4.60;99.90;;;;;;5075511;28;20126;-48
2022/01/06 04:58:03;;;;;;;9.90;3.58;;;4.50;99.90;;;;;;5075434;28;20032;-45
2022/01/06 05:00:28;;;;;;;10.63;2.35;;;4.50;99.90;;;;;;5092923;28;20052;-52
2022/01/06 05:02:54;;;;;;;13.38;2.75;;;4.50;99.90;;;;;;5075910;28;20020;-49
2022/01/06 05:05:19;;;;;;;10.88;2.80;;;4.40;99.90;;;;;;5093621;28;20078;-50
2022/01/06 05:07:45;;;;;;;11.55;2.80;;;4.40;99.90;;;;;;5075434;28;20371;-48
2022/01/06 05:10:11;;;;;;;14.20;3.58;;;4.30;99.90;;;;;;5075421;28;20020;-48
2022/01/06 05:12:44;;;;;;;5.68;2.17;;;4.20;99.90;;;;;;5093586;28;20047;-51
2022/01/06 05:15:11;;;;;;;9.35;2.95;;;4.20;99.90;;;;;;5093837;28;20028;-53
2022/01/06 05:17:36;;;;;;;12.63;3.33;;;4.20;99.90;;;;;;5093433;28;20089;-46
2022/01/06 05:20:04;;;;;;;9.98;3.17;;;4.10;99.90;;;;;;5093786;28;20016;-46
2022/01/06 05:22:30;;;;;;;14.18;4.03;;;4.00;99.90;;;;;;5075275;28;20017;-47
2022/01/06 05:24:56;;;;;;;14.48;3.60;;;4.00;99.90;;;;;;5075965;28;20040;-47
2022/01/06 05:27:22;;;;;;;14.23;3.25;;;4.00;99.90;;;;;;5093616;28;20020;-46
2022/01/06 05:29:47;;;;;;;12.05;2.90;;;4.00;99.90;;;;;;5075231;28;20024;-46
2022/01/06 05:32:13;;;;;;;10.68;3.40;;;4.00;99.90;;;;;;5075254;28;20020;-46
2022/01/06 05:34:39;;;;;;;10.13;3.42;;;4.00;99.90;;;;;;5075190;28;20031;-46
2022/01/06 05:37:05;;;;;;;8.10;3.30;;;4.10;99.90;;;;;;5075146;28;20017;-46
2022/01/06 05:39:30;;;;;;;12.52;2.92;;;4.20;99.90;;;;;;5075143;28;20026;-48
2022/01/06 05:41:56;;;;;;;11.18;2.80;;;4.20;99.90;;;;;;5075798;28;20493;-47
2022/01/06 05:44:22;;;;;;;15.57;3.20;;;4.20;99.90;;;;;;5093227;28;20031;-46
2022/01/06 05:46:47;;;;;;;16.95;4.10;;;4.30;99.90;;;;;;5074982;28;20024;-46
2022/01/06 05:49:14;;;;;;;14.90;3.88;;;4.30;99.90;;;;;;5093156;28;20024;-46
2022/01/06 05:51:40;;;;;;;15.15;3.70;;;4.40;99.90;;;;;;5093092;28;20032;-46
2022/01/06 05:54:06;;;;;;;9.50;2.70;;;4.30;99.90;;;;;;5075987;28;20024;-46
2022/01/06 05:56:32;;;;;;;6.53;2.90;;;4.30;99.90;;;;;;5074927;28;20088;-47
2022/01/06 05:58:58;;;;;;;14.80;3.60;;;4.20;99.90;;;;;;5092966;28;20078;-46
2022/01/06 06:01:23;;;;;;;17.92;3.22;;;4.10;99.90;;;;;;5074925;28;20032;-46
2022/01/06 06:03:49;;;;;;;13.57;3.65;;;4.00;99.90;;;;;;5075023;28;20115;-46
2022/01/06 06:06:15;;;;;;;13.48;3.25;;;3.90;99.90;;;;;;5074879;28;20020;-46
2022/01/06 06:08:41;;;;;;;14.70;4.28;;;3.90;99.90;;;;;;5075768;28;20081;-46
2022/01/06 06:11:07;;;;;;;27.25;7.63;;;3.90;99.90;;;;;;5075099;28;20433;-49
2022/01/06 06:13:33;;;;;;;22.42;6.00;;;3.80;99.90;;;;;;5078887;28;20047;-46
2022/01/06 06:15:58;;;;;;;23.27;6.25;;;3.80;99.90;;;;;;5078823;28;20478;-48
2022/01/06 06:18:24;;;;;;;23.13;5.65;;;3.80;99.90;;;;;;5096549;28;20150;-47
2022/01/06 06:20:50;;;;;;;13.52;5.20;;;3.90;99.90;;;;;;5096600;28;20024;-46
2022/01/06 06:23:16;;;;;;;25.58;5.47;;;3.90;99.90;;;;;;5096510;28;20051;-46
2022/01/06 06:25:42;;;;;;;14.23;4.95;;;3.90;99.90;;;;;;5078377;28;20027;-48
2022/01/06 06:28:07;;;;;;;17.33;5.38;;;3.90;99.90;;;;;;5078488;28;20124;-47
2022/01/06 06:30:33;;;;;;;21.25;6.28;;;3.90;99.90;;;;;;5096444;28;20059;-48
2022/01/06 06:33:01;;;;;;;15.02;5.32;;;3.90;99.90;;;;;;5078251;28;20157;-47
2022/01/06 06:35:27;;;;;;;18.48;5.30;;;3.90;99.90;;;;;;5079472;28;20024;-46
2022/01/06 06:37:53;;;;;;;17.30;5.90;;;3.90;99.90;;;;;;5077960;28;20029;-48
2022/01/06 06:40:22;;;;;;;17.10;4.55;;;3.90;99.90;;;;;;5096256;28;20018;-47
2022/01/06 06:42:48;;;;;;;16.67;5.10;;;4.00;99.90;;;;;;5078002;28;20020;-47
2022/01/06 06:45:15;;;;;;;18.98;5.72;;;4.00;99.90;;;;;;5077986;28;20389;-49
2022/01/06 06:47:41;;;;;;;16.88;6.38;;;4.00;99.90;;;;;;5078420;28;20063;-47
2022/01/06 06:50:08;;;;;;;16.45;5.07;;;4.00;99.90;;;;;;5096092;28;20089;-50
2022/01/06 06:52:33;;;;;;;16.25;5.53;;;4.00;99.90;;;;;;5095999;28;20478;-49
2022/01/06 06:54:59;;;;;;;17.67;5.60;;;3.90;99.90;;;;;;5096334;28;20060;-48
2022/01/06 06:57:25;;;;;;;16.33;6.40;;;3.90;99.90;;;;;;5077963;28;20069;-47
2022/01/06 06:59:50;;;;;;;20.65;7.70;;;3.90;99.90;;;;;;5096034;28;20466;-50
2022/01/06 07:02:16;;;;;;;21.48;8.80;;;3.90;99.90;;;;;;5095883;28;20028;-48
2022/01/06 07:04:42;;;;;;;32.20;12.18;;;3.90;99.90;;;;;;5095749;28;20043;-49
2022/01/06 07:07:07;;;;;;;31.65;11.73;;;3.90;99.90;;;;;;5094399;28;20048;-47
2022/01/06 07:09:33;;;;;;;36.53;14.32;;;4.00;99.90;;;;;;5095023;28;20551;-47
2022/01/06 07:15:20;;;;;;;29.43;11.47;;;4.00;99.90;;;;;;5095756;28;20540;-46
2022/01/06 07:17:46;;;;;;;17.70;6.93;;;4.10;99.90;;;;;;5095368;28;20032;-46
2022/01/06 07:20:11;;;;;;;18.85;6.70;;;4.20;99.90;;;;;;5077346;28;20016;-46
2022/01/06 07:22:38;;;;;;;13.50;4.68;;;4.20;99.90;;;;;;5095369;28;20062;-46
2022/01/06 07:25:05;;;;;;;14.90;5.13;;;4.20;99.90;;;;;;5094936;28;20043;-46
2022/01/06 07:27:30;;;;;;;14.30;5.38;;;4.10;99.90;;;;;;5077094;28;20027;-46
2022/01/06 07:29:56;;;;;;;18.58;6.97;;;4.20;99.90;;;;;;5095629;28;20021;-46
2022/01/06 07:32:24;;;;;;;17.08;7.97;;;4.20;99.90;;;;;;5077063;28;20024;-46
2022/01/06 07:34:50;;;;;;;17.08;7.22;;;4.20;99.90;;;;;;5076983;28;20027;-46
2022/01/06 07:37:15;;;;;;;15.45;6.05;;;4.20;99.90;;;;;;5077000;28;20020;-47
2022/01/06 07:39:41;;;;;;;12.00;4.65;;;4.20;99.90;;;;;;5095048;28;20432;-46
2022/01/06 07:42:07;;;;;;;16.23;5.82;;;4.30;99.90;;;;;;5095293;28;20028;-46
2022/01/06 07:44:33;;;;;;;19.10;5.00;;;4.30;99.90;;;;;;5095344;28;20028;-46
2022/01/06 07:46:59;;;;;;;10.98;4.70;;;4.30;99.90;;;;;;5094829;28;20024;-46
2022/01/06 07:49:25;;;;;;;17.63;5.60;;;4.30;99.90;;;;;;5094785;28;20027;-46
2022/01/06 07:51:51;;;;;;;12.73;4.72;;;4.50;99.90;;;;;;5077716;28;20115;-46
2022/01/06 07:54:17;;;;;;;13.88;4.38;;;4.40;99.90;;;;;;5077074;28;20062;-47
2022/01/06 07:56:42;;;;;;;12.98;4.35;;;4.50;99.90;;;;;;5095009;28;20085;-45
2022/01/06 07:59:09;;;;;;;11.18;4.80;;;4.50;99.90;;;;;;5076843;28;20028;-45
2022/01/06 08:01:35;;;;;;;11.82;4.40;;;4.50;99.90;;;;;;5076976;28;20538;-46
2022/01/06 08:04:00;;;;;;;16.73;4.03;;;4.50;99.90;;;;;;5076535;28;20119;-45
2022/01/06 08:06:26;;;;;;;13.82;4.75;;;4.60;99.90;;;;;;5076460;28;20020;-46
2022/01/06 08:08:51;;;;;;;8.90;3.80;;;4.60;99.90;;;;;;5094483;28;20115;-46
2022/01/06 08:11:17;;;;;;;18.30;4.95;;;4.70;99.90;;;;;;5094544;28;20040;-46
2022/01/06 08:13:43;;;;;;;22.40;5.35;;;4.70;99.90;;;;;;5094475;28;20103;-46
2022/01/06 08:16:09;;;;;;;16.13;3.97;;;4.50;99.90;;;;;;5076424;28;20027;-46
2022/01/06 08:18:34;;;;;;;12.75;3.88;;;4.40;99.90;;;;;;5077321;28;20049;-46
2022/01/06 08:21:00;;;;;;;19.13;4.25;;;4.40;99.90;;;;;;5076193;28;20027;-47
2022/01/06 08:23:26;;;;;;;14.75;5.65;;;4.40;99.90;;;;;;5077048;28;20115;-46
2022/01/06 08:25:52;;;;;;;14.07;4.18;;;4.30;99.90;;;;;;5076852;28;20101;-46
2022/01/06 08:28:18;;;;;;;14.60;5.00;;;4.40;99.90;;;;;;5094473;28;20466;-46
2022/01/06 08:30:43;;;;;;;22.40;7.65;;;4.40;99.90;;;;;;5076392;28;20032;-46
2022/01/06 08:33:09;;;;;;;11.35;4.40;;;4.80;99.90;;;;;;5076054;28;20410;-47
2022/01/06 08:35:35;;;;;;;10.73;3.95;;;5.60;99.90;;;;;;5093079;28;20028;-48
2022/01/06 08:38:01;;;;;;;9.55;3.58;;;6.50;99.90;;;;;;5093820;28;20024;-47
2022/01/06 08:40:26;;;;;;;15.50;4.75;;;7.20;99.90;;;;;;5094296;28;20051;-47
2022/01/06 08:42:53;;;;;;;11.50;5.03;;;8.00;99.90;;;;;;5094028;28;20024;-49
2022/01/06 08:48:59;;;;;;;14.43;3.42;;;9.30;99.90;;;;;;5094253;28;20066;-50
2022/01/06 08:51:25;;;;;;;12.15;3.80;;;9.40;99.90;;;;;;5075769;28;20028;-51
2022/01/06 08:53:50;;;;;;;7.70;3.42;;;9.00;99.90;;;;;;5092469;28;20017;-48
2022/01/06 08:56:23;;;;;;;10.98;3.78;;;8.90;99.90;;;;;;5089495;28;20016;-48
2022/01/06 08:58:49;;;;;;;10.35;4.38;;;9.30;99.90;;;;;;5082309;28;20040;-49
2022/01/06 09:01:15;;;;;;;11.93;3.83;;;9.60;99.90;;;;;;5082032;28;20024;-48
2022/01/06 09:03:41;;;;;;;9.95;3.40;;;10.20;99.90;;;;;;5077468;28;20027;-49
2022/01/06 09:06:07;;;;;;;14.80;3.85;;;10.60;99.90;;;;;;5095798;28;20107;-49
2022/01/06 09:08:39;;;;;;;10.70;4.25;;;10.90;99.90;;;;;;5093476;28;20048;-53
2022/01/06 09:11:04;;;;;;;7.68;3.60;;;11.30;99.90;;;;;;5065904;28;20059;-48
2022/01/06 09:13:30;;;;;;;9.85;4.00;;;11.70;99.90;;;;;;5063112;28;20075;-50
2022/01/06 09:15:56;;;;;;;13.05;3.65;;;12.00;99.90;;;;;;5093383;28;20055;-48
2022/01/06 09:18:22;;;;;;;14.98;4.78;;;12.30;99.90;;;;;;5093232;28;20063;-49
2022/01/06 09:20:48;;;;;;;52.53;19.95;;;12.50;99.90;;;;;;5075351;28;20058;-48
2022/01/06 09:23:14;;;;;;;15.75;6.75;;;12.80;99.90;;;;;;5075403;28;20020;-47
2022/01/06 09:25:40;;;;;;;11.50;5.30;;;13.40;99.90;;;;;;5093225;28;20024;-47
2022/01/06 09:28:05;;;;;;;10.93;6.38;;;13.70;99.90;;;;;;5060534;28;20035;-48
2022/01/06 09:30:31;;;;;;;11.82;5.40;;;13.90;99.90;;;;;;5093268;28;20027;-46
2022/01/06 09:32:56;;;;;;;14.70;6.53;;;14.10;99.90;;;;;;5075727;28;20510;-50
2022/01/06 09:35:40;;;;;;;14.35;5.70;;;14.00;99.90;;;;;;5067033;28;20024;-49
2022/01/06 09:38:06;;;;;;;19.30;6.70;;;13.90;99.90;;;;;;5058036;28;20024;-46
2022/01/06 09:40:32;;;;;;;10.20;4.40;;;13.90;99.90;;;;;;5081981;28;20021;-45
2022/01/06 09:42:57;;;;;;;11.10;4.95;;;13.90;99.90;;;;;;5075399;28;20066;-45
2022/01/06 09:45:27;;;;;;;12.77;5.05;;;13.50;99.90;;;;;;5075085;28;20024;-45
2022/01/06 09:47:54;;;;;;;11.60;4.38;;;13.20;99.90;;;;;;5096123;28;20016;-45
2022/01/06 09:50:20;;;;;;;19.65;5.22;;;13.10;99.90;;;;;;5078916;28;20024;-45
2022/01/06 09:52:46;;;;;;;17.30;6.57;;;12.80;99.90;;;;;;5074998;28;20028;-45
2022/01/06 09:55:13;;;;;;;10.70;4.30;;;12.40;99.90;;;;;;5076635;28;20035;-45
2022/01/06 09:57:39;;;;;;;17.20;5.78;;;12.50;99.90;;;;;;5058867;28;20060;-46
2022/01/06 10:00:10;;;;;;;9.77;3.40;;;12.60;99.90;;;;;;5076660;28;20056;-45
2022/01/06 10:06:38;;;;;;;8.23;2.95;;;12.10;99.90;;;;;;5076700;28;20074;-46
2022/01/06 10:09:05;;;;;;;10.15;3.20;;;11.90;99.90;;;;;;5076492;28;20024;-46
2022/01/06 10:11:33;;;;;;;12.18;3.70;;;11.50;99.90;;;;;;5076419;28;20043;-45
2022/01/06 10:14:05;;;;;;;7.97;3.10;;;11.40;99.90;;;;;;5076380;28;20027;-45
2022/01/06 10:16:32;;;;;;;7.28;3.25;;;11.40;99.90;;;;;;5076287;28;20032;-46
2022/01/06 10:19:03;;;;;;;7.95;3.25;;;11.20;99.90;;;;;;5076291;28;20035;-45
2022/01/06 10:21:33;;;;;;;14.13;3.97;;;11.10;99.90;;;;;;5058825;28;20112;-45
2022/01/06 10:24:09;;;;;;;11.27;3.75;;;10.80;99.90;;;;;;5058674;28;20039;-47
2022/01/06 10:26:36;;;;;;;12.52;3.08;;;10.70;99.90;;;;;;5076301;28;20027;-48
2022/01/06 10:29:08;;;;;;;11.20;3.35;;;10.50;99.90;;;;;;5058075;28;20042;-46
2022/01/06 10:31:34;;;;;;;10.45;3.38;;;10.50;99.90;;;;;;5076311;28;20024;-48
2022/01/06 10:34:07;;;;;;;11.20;3.67;;;10.40;99.90;;;;;;5075885;28;20032;-46
2022/01/06 10:36:32;;;;;;;14.13;4.38;;;10.20;99.90;;;;;;5075814;28;20031;-47
2022/01/06 10:39:22;;;;;;;14.50;3.50;;;10.10;99.90;;;;;;5057933;28;20119;-47
2022/01/06 10:41:48;;;;;;;13.65;3.30;;;10.00;99.90;;;;;;5057990;28;20024;-49
2022/01/06 10:44:13;;;;;;;14.93;3.47;;;10.00;99.90;;;;;;5057907;28;20020;-49
2022/01/06 10:46:40;;;;;;;19.95;3.67;;;9.80;99.90;;;;;;5057789;28;20021;-50
2022/01/06 10:49:15;;;;;;;11.60;3.67;;;9.70;99.90;;;;;;5057661;28;20036;-53
2022/01/06 10:51:48;;;;;;;16.50;4.38;;;9.70;99.90;;;;;;5057737;28;20075;-52
2022/01/06 10:55:04;;;;;;;11.45;4.00;;;9.60;99.90;;;;;;5058231;28;20124;-52
2022/01/06 10:57:30;;;;;;;10.50;3.03;;;9.60;99.90;;;;;;5057672;28;20025;-51
2022/01/06 10:59:57;;;;;;;13.25;3.33;;;9.50;99.90;;;;;;5075003;28;20067;-46
2022/01/06 11:02:25;;;;;;;7.47;3.10;;;9.40;99.90;;;;;;5075371;28;20045;-46
2022/01/06 11:04:51;;;;;;;11.43;3.50;;;9.40;99.90;;;;;;5075457;28;20032;-50
2022/01/06 11:07:17;;;;;;;9.98;2.95;;;9.40;99.90;;;;;;5057588;28;20028;-45
2022/01/06 11:09:47;;;;;;;12.20;3.47;;;9.40;99.90;;;;;;5057462;28;20024;-45
2022/01/06 11:12:26;;;;;;;9.00;2.80;;;9.20;99.90;;;;;;5075353;28;20056;-47
2022/01/06 11:14:53;;;;;;;19.15;4.55;;;9.10;99.90;;;;;;5057590;28;20052;-46
2022/01/06 11:17:21;;;;;;;11.98;4.57;;;9.10;99.90;;;;;;5057505;28;20047;-46
2022/01/06 11:19:48;;;;;;;19.77;5.78;;;8.90;99.90;;;;;;5056994;28;20025;-47
2022/01/06 11:22:14;;;;;;;12.70;3.20;;;8.80;99.90;;;;;;5057576;28;20021;-48
2022/01/06 11:24:50;;;;;;;16.60;3.47;;;8.90;99.90;;;;;;5075115;28;20024;-46
2022/01/06 11:27:16;;;;;;;13.60;3.50;;;8.70;99.90;;;;;;5075029;28;20046;-46
2022/01/06 11:29:43;;;;;;;17.33;3.67;;;8.70;99.90;;;;;;5057065;28;20021;-46
2022/01/06 11:32:23;;;;;;;13.50;4.95;;;8.80;99.90;;;;;;5057037;28;20036;-45
2022/01/06 11:35:07;;;;;;;12.73;5.10;;;8.70;99.90;;;;;;5074992;28;20028;-46
2022/01/06 11:37:46;;;;;;;11.32;3.50;;;8.60;99.90;;;;;;5057056;28;20504;-45
2022/01/06 11:40:15;;;;;;;15.68;4.72;;;8.60;99.90;;;;;;5056948;28;20479;-46
2022/01/06 11:42:41;;;;;;;14.85;6.18;;;8.70;99.90;;;;;;5057067;28;20017;-46
2022/01/06 11:45:17;;;;;;;14.98;6.00;;;8.80;99.90;;;;;;5056695;28;20025;-45
2022/01/06 11:47:43;;;;;;;10.73;3.33;;;8.70;99.90;;;;;;5056676;28;20027;-47
2022/01/06 11:50:14;;;;;;;9.73;3.97;;;8.80;99.90;;;;;;5074643;28;20025;-48
2022/01/06 11:52:56;;;;;;;12.23;5.35;;;8.60;99.90;;;;;;5074735;28;20020;-46
2022/01/06 11:55:27;;;;;;;12.80;3.70;;;8.50;99.90;;;;;;5074392;28;20028;-45
2022/01/06 11:57:53;;;;;;;12.07;3.77;;;8.60;99.90;;;;;;5056475;28;20058;-46
2022/01/06 12:00:28;;;;;;;16.17;3.65;;;8.60;99.90;;;;;;5056463;28;20270;-48
2022/01/06 12:03:13;;;;;;;6.25;2.80;;;8.60;99.90;;;;;;5056457;28;20028;-50
2022/01/06 12:05:51;;;;;;;15.27;4.20;;;8.70;99.90;;;;;;5056598;28;20105;-47
2022/01/06 12:08:20;;;;;;;14.55;3.88;;;8.80;99.90;;;;;;5056863;28;20432;-46
2022/01/06 12:10:50;;;;;;;11.40;3.88;;;8.90;99.90;;;;;;5074172;28;20376;-48
2022/01/06 12:13:17;;;;;;;18.17;3.38;;;8.90;99.90;;;;;;5056795;28;20475;-49
2022/01/06 12:15:52;;;;;;;8.38;3.22;;;9.00;99.90;;;;;;5056546;28;20026;-49
2022/01/06 12:18:23;;;;;;;14.73;3.05;;;9.00;99.90;;;;;;5056466;28;20032;-49
2022/01/06 12:20:49;;;;;;;16.80;3.40;;;9.10;99.90;;;;;;5056071;28;20457;-48
2022/01/06 12:23:16;;;;;;;14.80;3.70;;;9.20;99.90;;;;;;5074027;28;20077;-47
2022/01/06 12:25:46;;;;;;;8.88;3.67;;;9.10;99.90;;;;;;5056355;28;20051;-47
2022/01/06 12:28:12;;;;;;;11.45;3.40;;;9.00;99.90;;;;;;5073922;28;20103;-49
2022/01/06 12:30:38;;;;;;;8.68;2.90;;;8.80;99.90;;;;;;5055923;28;20082;-48
2022/01/06 12:33:49;;;;;;;10.98;3.08;;;9.00;99.90;;;;;;5073956;28;20081;-51
2022/01/06 12:36:20;;;;;;;11.55;3.35;;;8.90;99.90;;;;;;5073921;28;20390;-49
2022/01/06 12:38:47;;;;;;;12.80;4.05;;;8.60;99.90;;;;;;5073601;28;20508;-47
2022/01/06 12:41:14;;;;;;;12.82;3.28;;;8.60;99.90;;;;;;5072885;28;20032;-47
2022/01/06 12:44:02;;;;;;;15.82;3.33;;;8.60;99.90;;;;;;5055732;28;20046;-49
2022/01/06 12:46:41;;;;;;;9.40;3.20;;;8.60;99.90;;;;;;5055684;28;20544;-49
2022/01/06 12:49:08;;;;;;;9.15;2.92;;;8.50;99.90;;;;;;5066681;28;20108;-51
2022/01/06 12:51:37;;;;;;;14.73;3.22;;;8.60;99.90;;;;;;5073177;28;20024;-49
2022/01/06 12:54:16;;;;;;;15.20;3.28;;;8.60;99.90;;;;;;5094413;28;20055;-51
2022/01/06 12:56:42;;;;;;;9.98;2.50;;;8.70;99.90;;;;;;5076069;28;20020;-51
2022/01/06 12:59:14;;;;;;;12.75;3.65;;;8.70;99.90;;;;;;5072586;28;20028;-51
2022/01/06 13:01:41;;;;;;;18.23;4.13;;;8.60;99.90;;;;;;5072059;28;20033;-53
2022/01/06 13:04:08;;;;;;;17.45;3.97;;;8.60;99.90;;;;;;5072477;28;20029;-47
2022/01/06 13:06:36;;;;;;;15.88;4.35;;;8.60;99.90;;;;;;5072309;28;20059;-47
2022/01/06 13:12:26;;;;;;;10.60;4.00;;;8.90;99.90;;;;;;5073612;28;20027;-49
2022/01/06 13:14:53;;;;;;;19.10;7.32;;;8.90;99.90;;;;;;5073495;28;20025;-47
2022/01/06 13:17:23;;;;;;;41.67;12.90;;;8.70;99.90;;;;;;5073168;28;20056;-49